Time;durP1;ratioP1;P1;durP2;ratioP2;P2;SDS_P1;SDS_P2;PMS_P1;PMS_P2;Temp;Humidity;BMP_temperature;BMP_pressure;BME280_temperature;BME280_humidity;BME280_pressure;Samples;Min_cycle;Max_cycle;Signal;HPM_P1;HPM_P2
2023/04/24 00:01:52;;;;;;;2.47;2.38;;;;;;;;;;4196577;28;20048;-85
2023/04/24 00:04:16;;;;;;;3.17;2.25;;;;;;;;;;4204955;28;20112;-85
2023/04/24 00:06:38;;;;;;;2.25;2.15;;;;;;;;;;4195336;28;20095;-86
2023/04/24 00:09:02;;;;;;;3.00;2.90;;;;;;;;;;4208792;28;20051;-85
2023/04/24 00:11:22;;;;;;;2.92;2.83;;;;;;;;;;4208265;28;20056;-86
2023/04/24 00:13:42;;;;;;;2.30;2.20;;;;;;;;;;4193560;28;20067;-86
2023/04/24 00:16:02;;;;;;;2.70;2.50;;;;;;;;;;4206721;28;20080;-85
2023/04/24 00:18:23;;;;;;;3.42;2.80;;;;;;;;;;4196332;28;20070;-85
2023/04/24 00:20:43;;;;;;;2.80;2.70;;;;;;;;;;4194616;28;20398;-86
2023/04/24 00:23:03;;;;;;;2.42;2.33;;;;;;;;;;4194963;28;20044;-86
2023/04/24 00:25:24;;;;;;;2.00;1.90;;;;;;;;;;4206434;28;20090;-85
2023/04/24 00:27:44;;;;;;;2.38;2.28;;;;;;;;;;4194963;28;20047;-86
2023/04/24 00:30:04;;;;;;;2.60;2.50;;;;;;;;;;4212795;28;20148;-86
2023/04/24 00:32:25;;;;;;;3.05;2.13;;;;;;;;;;4196112;28;20051;-86
2023/04/24 00:34:45;;;;;;;1.90;1.90;;;;;;;;;;4198102;28;20111;-85
2023/04/24 00:37:05;;;;;;;2.95;1.90;;;;;;;;;;4184546;28;20079;-86
2023/04/24 00:39:26;;;;;;;2.70;2.50;;;;;;;;;;4205144;28;20105;-85
2023/04/24 00:41:47;;;;;;;5.50;2.58;;;;;;;;;;4206732;28;20371;-85
2023/04/24 00:44:07;;;;;;;4.10;2.78;;;;;;;;;;4199832;28;20130;-86
2023/04/24 00:46:28;;;;;;;3.00;2.90;;;;;;;;;;4204271;28;20240;-85
2023/04/24 00:48:48;;;;;;;3.00;3.00;;;;;;;;;;4196625;28;20047;-86
2023/04/24 00:51:09;;;;;;;4.10;3.90;;;;;;;;;;4180790;28;20419;-86
2023/04/24 00:53:29;;;;;;;3.97;3.88;;;;;;;;;;4200672;28;20122;-86
2023/04/24 00:55:49;;;;;;;4.03;3.83;;;;;;;;;;4201452;28;20047;-86
2023/04/24 00:58:09;;;;;;;4.75;4.45;;;;;;;;;;4194768;28;20152;-86
2023/04/24 01:00:30;;;;;;;4.38;4.00;;;;;;;;;;4211688;28;20066;-88
2023/04/24 01:02:58;;;;;;;4.63;4.05;;;;;;;;;;4212344;28;20274;-89
2023/04/24 01:05:19;;;;;;;4.03;3.85;;;;;;;;;;4165198;28;20120;-58
2023/04/24 01:07:40;;;;;;;3.33;3.13;;;;;;;;;;4166688;28;20553;-58
2023/04/24 01:10:00;;;;;;;4.47;3.83;;;;;;;;;;4165599;28;20049;-58
2023/04/24 01:12:20;;;;;;;4.35;4.15;;;;;;;;;;4166152;28;20077;-58
2023/04/24 01:14:40;;;;;;;3.97;3.80;;;;;;;;;;4165102;28;20048;-58
2023/04/24 01:17:01;;;;;;;4.35;4.25;;;;;;;;;;4164847;28;20060;-58
2023/04/24 01:19:21;;;;;;;4.60;4.30;;;;;;;;;;4164794;28;20049;-58
2023/04/24 01:21:42;;;;;;;5.63;5.22;;;;;;;;;;4163352;28;20455;-58
2023/04/24 01:24:03;;;;;;;3.80;3.70;;;;;;;;;;4162482;28;20077;-57
2023/04/24 01:26:25;;;;;;;4.32;4.20;;;;;;;;;;4168715;28;20101;-58
2023/04/24 01:28:45;;;;;;;5.03;4.60;;;;;;;;;;4167655;28;20264;-58
2023/04/24 01:31:06;;;;;;;4.57;4.47;;;;;;;;;;4169803;28;20079;-58
2023/04/24 01:33:27;;;;;;;3.85;3.75;;;;;;;;;;4164077;28;20113;-58
2023/04/24 01:35:47;;;;;;;5.03;4.88;;;;;;;;;;4165536;28;20061;-58
2023/04/24 01:38:08;;;;;;;4.22;4.03;;;;;;;;;;4167276;28;20052;-58
2023/04/24 01:40:28;;;;;;;4.55;4.43;;;;;;;;;;4162960;28;20435;-58
2023/04/24 01:42:48;;;;;;;4.82;4.45;;;;;;;;;;4147208;28;20046;-58
2023/04/24 01:45:10;;;;;;;4.97;4.57;;;;;;;;;;4148924;28;20053;-58
2023/04/24 01:47:30;;;;;;;4.82;4.53;;;;;;;;;;4152630;28;20414;-58
2023/04/24 01:49:51;;;;;;;4.07;3.92;;;;;;;;;;4151769;28;20069;-58
2023/04/24 01:52:11;;;;;;;4.32;3.95;;;;;;;;;;4151110;28;20073;-58
2023/04/24 01:54:31;;;;;;;4.50;4.30;;;;;;;;;;4146189;28;20061;-58
2023/04/24 01:56:51;;;;;;;4.18;3.92;;;;;;;;;;4149684;28;20106;-58
2023/04/24 01:59:11;;;;;;;4.10;3.90;;;;;;;;;;4150192;28;20111;-58
2023/04/24 02:01:38;;;;;;;4.47;4.25;;;;;;;;;;4146198;28;20052;-59
2023/04/24 02:03:59;;;;;;;3.53;3.25;;;;;;;;;;4148404;28;20080;-59
2023/04/24 02:06:19;;;;;;;3.90;3.58;;;;;;;;;;4151663;28;20112;-58
2023/04/24 02:08:39;;;;;;;5.35;4.93;;;;;;;;;;4144611;28;20076;-58
2023/04/24 02:11:01;;;;;;;4.43;4.28;;;;;;;;;;4131954;28;20054;-58
2023/04/24 02:13:22;;;;;;;5.93;5.00;;;;;;;;;;4150124;28;20053;-57
2023/04/24 02:15:42;;;;;;;5.30;4.25;;;;;;;;;;4149718;28;20346;-57
2023/04/24 02:18:02;;;;;;;3.70;3.53;;;;;;;;;;4146299;28;20045;-58
2023/04/24 02:20:23;;;;;;;4.47;4.28;;;;;;;;;;4150041;28;20272;-58
2023/04/24 02:22:43;;;;;;;4.10;3.80;;;;;;;;;;4146493;28;20061;-58
2023/04/24 02:25:03;;;;;;;4.55;4.25;;;;;;;;;;4147390;28;20049;-59
2023/04/24 02:27:24;;;;;;;4.28;4.18;;;;;;;;;;4150954;28;20060;-58
2023/04/24 02:29:44;;;;;;;5.70;3.95;;;;;;;;;;4147191;28;20044;-58
2023/04/24 02:32:05;;;;;;;5.13;4.68;;;;;;;;;;4147983;28;20169;-59
2023/04/24 02:34:25;;;;;;;4.20;3.90;;;;;;;;;;4148741;28;20061;-58
2023/04/24 02:36:45;;;;;;;4.22;4.03;;;;;;;;;;4150288;28;20284;-59
2023/04/24 02:39:06;;;;;;;3.72;3.42;;;;;;;;;;4147290;28;20048;-58
2023/04/24 02:41:31;;;;;;;4.00;3.70;;;;;;;;;;4149658;28;20060;-58
2023/04/24 02:43:50;;;;;;;3.80;3.70;;;;;;;;;;4150229;28;20048;-58
2023/04/24 02:46:11;;;;;;;4.15;3.90;;;;;;;;;;4147530;28;20053;-58
2023/04/24 02:48:31;;;;;;;2.90;2.90;;;;;;;;;;4153292;28;20093;-58
2023/04/24 02:50:51;;;;;;;3.63;3.42;;;;;;;;;;4151789;28;20053;-58
2023/04/24 02:53:11;;;;;;;3.80;3.63;;;;;;;;;;4150273;28;20053;-58
2023/04/24 02:55:32;;;;;;;4.68;4.10;;;;;;;;;;4149286;28;20057;-58
2023/04/24 02:57:52;;;;;;;3.10;2.97;;;;;;;;;;4145627;28;20703;-58
2023/04/24 03:00:13;;;;;;;4.05;3.83;;;;;;;;;;4152787;28;20049;-58
2023/04/24 03:02:33;;;;;;;5.47;5.20;;;;;;;;;;4152973;28;20065;-58
2023/04/24 03:04:54;;;;;;;4.07;3.97;;;;;;;;;;4149728;28;20144;-58
2023/04/24 03:07:15;;;;;;;4.55;4.28;;;;;;;;;;4148753;28;20061;-58
2023/04/24 03:09:36;;;;;;;4.57;4.43;;;;;;;;;;4150006;28;20057;-58
2023/04/24 03:11:57;;;;;;;4.28;4.00;;;;;;;;;;4151567;28;20049;-58
2023/04/24 03:14:17;;;;;;;4.38;4.20;;;;;;;;;;4151246;28;20061;-58
2023/04/24 03:16:37;;;;;;;3.67;3.50;;;;;;;;;;4152527;28;20061;-58
2023/04/24 03:18:58;;;;;;;3.55;3.45;;;;;;;;;;4147617;28;20092;-58
2023/04/24 03:21:19;;;;;;;4.32;4.00;;;;;;;;;;4150626;28;20273;-58
2023/04/24 03:23:39;;;;;;;4.43;4.03;;;;;;;;;;4145862;28;20049;-59
2023/04/24 03:25:59;;;;;;;4.03;3.55;;;;;;;;;;4145879;28;20376;-59
2023/04/24 03:28:19;;;;;;;4.82;4.53;;;;;;;;;;4153716;28;20049;-59
2023/04/24 03:30:39;;;;;;;4.65;4.22;;;;;;;;;;4152399;28;20045;-61
2023/04/24 03:33:00;;;;;;;9.63;5.65;;;;;;;;;;4145044;28;20096;-63
2023/04/24 03:35:21;;;;;;;6.95;6.20;;;;;;;;;;4148319;28;20041;-62
2023/04/24 03:37:42;;;;;;;12.05;7.70;;;;;;;;;;4152248;28;20053;-61
2023/04/24 03:40:02;;;;;;;5.22;5.03;;;;;;;;;;4151535;28;20100;-60
2023/04/24 03:42:23;;;;;;;6.38;6.03;;;;;;;;;;4145688;28;20049;-59
2023/04/24 03:44:43;;;;;;;8.98;6.65;;;;;;;;;;4146802;28;20237;-59
2023/04/24 03:47:03;;;;;;;5.72;5.35;;;;;;;;;;4150110;28;20050;-59
2023/04/24 03:49:24;;;;;;;6.90;5.32;;;;;;;;;;4152489;28;20053;-59
2023/04/24 03:51:45;;;;;;;5.43;5.13;;;;;;;;;;4154356;28;20088;-62
2023/04/24 03:54:05;;;;;;;5.95;5.43;;;;;;;;;;4152623;28;20092;-60
2023/04/24 03:56:25;;;;;;;6.38;6.07;;;;;;;;;;4152729;28;20312;-59
2023/04/24 03:58:45;;;;;;;6.28;6.05;;;;;;;;;;4153574;28;20355;-59
2023/04/24 04:01:06;;;;;;;6.70;6.38;;;;;;;;;;4152770;28;20049;-59
2023/04/24 04:03:26;;;;;;;5.93;5.45;;;;;;;;;;4155623;28;20367;-59
2023/04/24 04:05:47;;;;;;;6.38;5.78;;;;;;;;;;4152859;28;20052;-60
2023/04/24 04:08:07;;;;;;;6.28;5.93;;;;;;;;;;4152886;28;20048;-59
2023/04/24 04:10:28;;;;;;;7.10;5.88;;;;;;;;;;4151206;28;20282;-59
2023/04/24 04:12:48;;;;;;;7.03;6.68;;;;;;;;;;4149715;28;20420;-59
2023/04/24 04:15:08;;;;;;;8.60;7.15;;;;;;;;;;4148443;28;20379;-59
2023/04/24 04:17:28;;;;;;;7.38;6.85;;;;;;;;;;4150080;28;20037;-59
2023/04/24 04:19:48;;;;;;;8.45;7.60;;;;;;;;;;4150422;28;20293;-59
2023/04/24 04:22:08;;;;;;;8.13;7.38;;;;;;;;;;4149316;28;20098;-59
2023/04/24 04:24:29;;;;;;;7.97;6.88;;;;;;;;;;4146966;28;20052;-59
2023/04/24 04:26:50;;;;;;;6.88;6.30;;;;;;;;;;4151406;28;20065;-60
2023/04/24 04:29:11;;;;;;;7.38;6.03;;;;;;;;;;4151984;28;20080;-60
2023/04/24 04:31:31;;;;;;;5.95;5.15;;;;;;;;;;4153056;28;20106;-60
2023/04/24 04:33:52;;;;;;;6.10;5.57;;;;;;;;;;4151414;28;20192;-60
2023/04/24 04:36:12;;;;;;;6.03;5.70;;;;;;;;;;4149507;28;20084;-60
2023/04/24 04:38:33;;;;;;;6.95;5.53;;;;;;;;;;4148666;28;20374;-60
2023/04/24 04:40:53;;;;;;;6.22;5.70;;;;;;;;;;4144685;28;20230;-59
2023/04/24 04:43:14;;;;;;;6.13;5.53;;;;;;;;;;4153688;28;20088;-60
2023/04/24 04:45:35;;;;;;;7.60;5.68;;;;;;;;;;4150753;28;20053;-60
2023/04/24 04:47:55;;;;;;;6.45;5.38;;;;;;;;;;4151452;28;20056;-59
2023/04/24 04:50:16;;;;;;;5.05;4.60;;;;;;;;;;4149714;28;20049;-59
2023/04/24 04:52:36;;;;;;;8.43;5.45;;;;;;;;;;4149393;28;20084;-60
2023/04/24 04:54:56;;;;;;;5.68;5.18;;;;;;;;;;4147794;28;20040;-60
2023/04/24 04:57:17;;;;;;;6.03;5.32;;;;;;;;;;4144672;28;20371;-59
2023/04/24 04:59:37;;;;;;;5.35;5.03;;;;;;;;;;4148488;28;20049;-60
2023/04/24 05:01:57;;;;;;;6.20;5.70;;;;;;;;;;4150095;28;20053;-60
2023/04/24 05:04:17;;;;;;;5.25;5.15;;;;;;;;;;4155604;28;20080;-60
2023/04/24 05:06:37;;;;;;;8.25;5.63;;;;;;;;;;4151567;28;20049;-60
2023/04/24 05:08:58;;;;;;;8.63;5.75;;;;;;;;;;4150680;28;20083;-64
2023/04/24 05:11:18;;;;;;;7.38;5.38;;;;;;;;;;4147854;28;20134;-61
2023/04/24 05:13:38;;;;;;;5.50;5.30;;;;;;;;;;4146673;28;20045;-59
2023/04/24 05:16:01;;;;;;;6.38;5.93;;;;;;;;;;4150397;28;20092;-59
2023/04/24 05:18:21;;;;;;;6.18;5.75;;;;;;;;;;4153056;28;20064;-59
2023/04/24 05:20:43;;;;;;;6.18;5.68;;;;;;;;;;4150344;28;20098;-59
2023/04/24 05:23:04;;;;;;;6.18;5.97;;;;;;;;;;4149320;28;20049;-59
2023/04/24 05:25:24;;;;;;;8.18;7.40;;;;;;;;;;4149398;28;20053;-59
2023/04/24 05:27:45;;;;;;;8.90;8.10;;;;;;;;;;4152958;28;20336;-59
2023/04/24 05:30:06;;;;;;;10.10;9.18;;;;;;;;;;4151919;28;20443;-59
2023/04/24 05:32:26;;;;;;;8.10;7.07;;;;;;;;;;4150921;28;20052;-60
2023/04/24 05:34:47;;;;;;;8.38;7.72;;;;;;;;;;4153770;28;20072;-61
2023/04/24 05:37:09;;;;;;;8.85;8.20;;;;;;;;;;4151775;28;20105;-60
2023/04/24 05:39:30;;;;;;;8.60;7.85;;;;;;;;;;4149955;28;20049;-60
2023/04/24 05:41:50;;;;;;;10.65;8.15;;;;;;;;;;4150453;28;20114;-62
2023/04/24 05:44:10;;;;;;;7.07;6.60;;;;;;;;;;4149035;28;20418;-61
2023/04/24 05:46:30;;;;;;;7.53;6.90;;;;;;;;;;4151932;28;20120;-61
2023/04/24 05:48:50;;;;;;;10.73;7.80;;;;;;;;;;4149044;28;20046;-60
2023/04/24 05:51:10;;;;;;;14.50;8.95;;;;;;;;;;4149665;28;20045;-60
2023/04/24 05:53:30;;;;;;;9.50;8.60;;;;;;;;;;4154382;28;20100;-60
2023/04/24 05:55:50;;;;;;;8.20;7.13;;;;;;;;;;4151879;28;20372;-61
2023/04/24 05:58:10;;;;;;;7.82;7.35;;;;;;;;;;4149387;28;20057;-61
2023/04/24 06:00:31;;;;;;;8.73;8.07;;;;;;;;;;4150212;28;20088;-61
2023/04/24 06:02:52;;;;;;;7.78;7.05;;;;;;;;;;4152785;28;20233;-60
2023/04/24 06:05:14;;;;;;;9.57;7.23;;;;;;;;;;4150177;28;20052;-60
2023/04/24 06:07:34;;;;;;;8.07;5.80;;;;;;;;;;4146404;28;20092;-60
2023/04/24 06:09:55;;;;;;;5.03;4.43;;;;;;;;;;4149927;28;20052;-60
2023/04/24 06:12:15;;;;;;;5.13;3.97;;;;;;;;;;4153247;28;20097;-60
2023/04/24 06:14:35;;;;;;;5.95;5.43;;;;;;;;;;4151593;28;20076;-60
2023/04/24 06:16:55;;;;;;;6.65;5.25;;;;;;;;;;4151574;28;20061;-60
2023/04/24 06:19:15;;;;;;;4.63;4.25;;;;;;;;;;4151049;28;20392;-60
2023/04/24 06:21:35;;;;;;;5.22;4.43;;;;;;;;;;4152739;28;20048;-60
2023/04/24 06:23:56;;;;;;;4.88;4.47;;;;;;;;;;4148115;28;20072;-60
2023/04/24 06:26:16;;;;;;;3.92;3.58;;;;;;;;;;4146868;28;20428;-60
2023/04/24 06:28:37;;;;;;;3.90;3.20;;;;;;;;;;4149609;28;20088;-60
2023/04/24 06:30:57;;;;;;;2.58;2.45;;;;;;;;;;4152727;28;20052;-60
2023/04/24 06:33:17;;;;;;;2.85;2.80;;;;;;;;;;4145682;28;20065;-60
2023/04/24 06:35:42;;;;;;;2.60;2.40;;;;;;;;;;4152200;28;20400;-59
2023/04/24 06:38:02;;;;;;;1.75;1.65;;;;;;;;;;4152009;28;20052;-60
2023/04/24 06:40:23;;;;;;;2.97;1.80;;;;;;;;;;4148341;28;20080;-60
2023/04/24 06:42:43;;;;;;;2.15;2.05;;;;;;;;;;4150280;28;20052;-60
2023/04/24 06:45:03;;;;;;;2.75;2.58;;;;;;;;;;4152776;28;20060;-60
2023/04/24 06:47:23;;;;;;;2.97;2.72;;;;;;;;;;4151201;28;20049;-59
2023/04/24 06:49:44;;;;;;;5.55;3.00;;;;;;;;;;4145599;28;20049;-59
2023/04/24 06:52:05;;;;;;;2.60;2.50;;;;;;;;;;4150217;28;20126;-59
2023/04/24 06:54:25;;;;;;;7.40;2.50;;;;;;;;;;4143786;28;20114;-59
2023/04/24 06:56:47;;;;;;;1.60;1.50;;;;;;;;;;4149408;28;20040;-59
2023/04/24 06:59:08;;;;;;;1.75;1.65;;;;;;;;;;4145745;28;20085;-59
2023/04/24 07:01:28;;;;;;;2.33;2.15;;;;;;;;;;4147585;28;20367;-59
2023/04/24 07:03:48;;;;;;;4.35;1.17;;;;;;;;;;4147131;28;20099;-59
2023/04/24 07:06:12;;;;;;;1.45;1.35;;;;;;;;;;4147930;28;20080;-59
2023/04/24 07:08:33;;;;;;;4.32;1.70;;;;;;;;;;4146382;28;20241;-59
2023/04/24 07:10:53;;;;;;;1.90;1.30;;;;;;;;;;4151819;28;20049;-59
2023/04/24 07:13:13;;;;;;;1.45;1.33;;;;;;;;;;4154432;28;20084;-59
2023/04/24 07:15:33;;;;;;;2.85;1.92;;;;;;;;;;4149546;28;20052;-59
2023/04/24 07:17:54;;;;;;;26.10;4.32;;;;;;;;;;4152391;28;20110;-59
2023/04/24 07:20:14;;;;;;;2.03;1.20;;;;;;;;;;4152432;28;20306;-59
2023/04/24 07:22:34;;;;;;;1.48;1.38;;;;;;;;;;4148512;28;20045;-58
2023/04/24 07:24:54;;;;;;;2.33;1.45;;;;;;;;;;4152169;28;20041;-59
2023/04/24 07:27:15;;;;;;;1.40;1.30;;;;;;;;;;4151416;28;20106;-59
2023/04/24 07:29:35;;;;;;;1.08;1.08;;;;;;;;;;4155298;28;20049;-58
2023/04/24 07:31:56;;;;;;;1.10;1.10;;;;;;;;;;4152069;28;20399;-59
2023/04/24 07:34:16;;;;;;;1.05;1.05;;;;;;;;;;4151984;28;20045;-59
2023/04/24 07:36:38;;;;;;;3.88;1.30;;;;;;;;;;4154528;28;20053;-59
2023/04/24 07:38:58;;;;;;;1.30;1.30;;;;;;;;;;4154354;28;20084;-58
2023/04/24 07:41:18;;;;;;;2.13;1.45;;;;;;;;;;4151675;28;20108;-59
2023/04/24 07:43:38;;;;;;;2.85;1.17;;;;;;;;;;4151701;28;20275;-58
2023/04/24 07:45:58;;;;;;;1.70;1.35;;;;;;;;;;4154447;28;20088;-59
2023/04/24 07:48:21;;;;;;;1.10;1.10;;;;;;;;;;4144823;28;20154;-59
2023/04/24 07:50:41;;;;;;;12.43;5.63;;;;;;;;;;4153242;28;20126;-59
2023/04/24 07:53:01;;;;;;;2.55;1.70;;;;;;;;;;4151042;28;20053;-59
2023/04/24 07:55:21;;;;;;;2.85;2.65;;;;;;;;;;4150886;28;20106;-59
2023/04/24 07:57:44;;;;;;;2.85;2.50;;;;;;;;;;4149752;28;20081;-59
2023/04/24 08:00:05;;;;;;;1.40;1.27;;;;;;;;;;4151039;28;20048;-59
2023/04/24 08:02:26;;;;;;;1.02;1.00;;;;;;;;;;4152292;28;20049;-58
2023/04/24 08:04:47;;;;;;;1.58;1.48;;;;;;;;;;4148688;28;20077;-59
2023/04/24 08:07:07;;;;;;;1.55;1.45;;;;;;;;;;4150409;28;20112;-59
2023/04/24 08:09:27;;;;;;;1.20;1.10;;;;;;;;;;4151590;28;20049;-59
2023/04/24 08:11:47;;;;;;;2.53;1.20;;;;;;;;;;4152563;28;20057;-58
2023/04/24 08:14:07;;;;;;;1.00;1.00;;;;;;;;;;4153919;28;20049;-59
2023/04/24 08:16:28;;;;;;;1.35;1.33;;;;;;;;;;4149166;28;20061;-59
2023/04/24 08:18:48;;;;;;;1.30;1.30;;;;;;;;;;4154102;28;20269;-59
2023/04/24 08:21:08;;;;;;;2.05;1.00;;;;;;;;;;4152225;28;20052;-59
2023/04/24 08:23:29;;;;;;;1.10;1.10;;;;;;;;;;4146847;28;20072;-58
2023/04/24 08:25:49;;;;;;;1.30;1.20;;;;;;;;;;4150578;28;20427;-59
2023/04/24 08:28:10;;;;;;;1.17;1.10;;;;;;;;;;4149331;28;20045;-59
2023/04/24 08:30:30;;;;;;;1.48;1.10;;;;;;;;;;4151759;28;20243;-58
2023/04/24 08:32:51;;;;;;;2.15;1.10;;;;;;;;;;4135827;28;20383;-58
2023/04/24 08:35:11;;;;;;;1.45;1.00;;;;;;;;;;4150887;28;20416;-58
2023/04/24 08:37:31;;;;;;;1.10;1.00;;;;;;;;;;4155388;28;20053;-58
2023/04/24 08:39:51;;;;;;;1.08;1.00;;;;;;;;;;4153781;28;20057;-59
2023/04/24 08:42:12;;;;;;;1.00;1.00;;;;;;;;;;4149839;28;20049;-58
2023/04/24 08:44:33;;;;;;;1.10;1.10;;;;;;;;;;4152770;28;20045;-58
2023/04/24 08:46:53;;;;;;;2.15;0.93;;;;;;;;;;4153225;28;20052;-59
2023/04/24 08:49:16;;;;;;;1.40;1.02;;;;;;;;;;4149445;28;20046;-59
2023/04/24 08:51:37;;;;;;;1.20;1.20;;;;;;;;;;4147444;28;20102;-59
2023/04/24 08:53:58;;;;;;;2.77;1.00;;;;;;;;;;4152773;28;20049;-59
2023/04/24 08:56:18;;;;;;;1.00;1.00;;;;;;;;;;4153345;28;20326;-59
2023/04/24 08:58:39;;;;;;;1.23;1.23;;;;;;;;;;4146512;28;20092;-58
2023/04/24 09:01:00;;;;;;;1.38;1.15;;;;;;;;;;4147333;28;20248;-58
2023/04/24 09:03:21;;;;;;;1.77;1.10;;;;;;;;;;4147446;28;20375;-59
2023/04/24 09:05:45;;;;;;;1.20;1.20;;;;;;;;;;4152650;28;20053;-58
2023/04/24 09:08:06;;;;;;;7.00;1.13;;;;;;;;;;4143445;28;20092;-59
2023/04/24 09:10:27;;;;;;;1.10;1.10;;;;;;;;;;4148661;28;20233;-58
2023/04/24 09:12:48;;;;;;;1.77;1.08;;;;;;;;;;4150726;28;20395;-59
2023/04/24 09:15:08;;;;;;;1.85;1.00;;;;;;;;;;4154420;28;20049;-59
2023/04/24 09:17:28;;;;;;;0.98;0.98;;;;;;;;;;4144899;28;20053;-59
2023/04/24 09:19:49;;;;;;;1.77;1.15;;;;;;;;;;4150640;28;20077;-58
2023/04/24 09:22:10;;;;;;;3.90;1.35;;;;;;;;;;4153263;28;20069;-58
2023/04/24 09:24:31;;;;;;;0.98;0.98;;;;;;;;;;4144478;28;20053;-59
2023/04/24 09:26:58;;;;;;;1.55;1.02;;;;;;;;;;4149148;28;20233;-58
2023/04/24 09:29:19;;;;;;;1.15;1.10;;;;;;;;;;4150857;28;20049;-59
2023/04/24 09:31:40;;;;;;;1.00;1.00;;;;;;;;;;4149725;28;20048;-58
2023/04/24 09:34:03;;;;;;;1.00;1.00;;;;;;;;;;4141172;28;20392;-58
2023/04/24 09:36:29;;;;;;;1.30;1.20;;;;;;;;;;4153060;28;20114;-59
2023/04/24 09:38:54;;;;;;;1.50;1.00;;;;;;;;;;4154341;28;20060;-59
2023/04/24 09:41:15;;;;;;;2.03;1.42;;;;;;;;;;4152314;28;20110;-58
2023/04/24 09:43:35;;;;;;;1.55;1.10;;;;;;;;;;4151514;28;20044;-58
2023/04/24 09:45:57;;;;;;;1.00;0.90;;;;;;;;;;4152581;28;20426;-59
2023/04/24 09:48:18;;;;;;;0.90;0.90;;;;;;;;;;4150468;28;20080;-58
2023/04/24 09:50:39;;;;;;;4.32;1.63;;;;;;;;;;4149398;28;20122;-58
2023/04/24 09:53:01;;;;;;;1.60;1.00;;;;;;;;;;4152743;28;20048;-58
2023/04/24 09:55:22;;;;;;;1.35;1.20;;;;;;;;;;4151872;28;20048;-58
2023/04/24 09:57:49;;;;;;;6.43;1.45;;;;;;;;;;4153714;28;20113;-58
2023/04/24 10:00:10;;;;;;;1.38;1.33;;;;;;;;;;4147470;28;20328;-58
2023/04/24 10:02:32;;;;;;;2.50;1.00;;;;;;;;;;4148213;28;20065;-58
2023/04/24 10:04:56;;;;;;;1.88;1.40;;;;;;;;;;4148326;28;20044;-58
2023/04/24 10:07:16;;;;;;;1.42;1.20;;;;;;;;;;4150805;28;20236;-58
2023/04/24 10:09:37;;;;;;;1.02;0.93;;;;;;;;;;4148119;28;20379;-58
2023/04/24 10:11:57;;;;;;;1.40;1.10;;;;;;;;;;4146890;28;20049;-59
2023/04/24 10:14:20;;;;;;;0.90;0.90;;;;;;;;;;4151962;28;20075;-59
2023/04/24 10:16:40;;;;;;;1.37;1.10;;;;;;;;;;4154272;28;20056;-58
2023/04/24 10:19:01;;;;;;;1.05;1.00;;;;;;;;;;4151002;28;20271;-58
2023/04/24 10:21:21;;;;;;;1.30;1.20;;;;;;;;;;4150604;28;20053;-58
2023/04/24 10:23:42;;;;;;;1.67;1.05;;;;;;;;;;4147151;28;20452;-58
2023/04/24 10:26:03;;;;;;;1.40;1.30;;;;;;;;;;4148474;28;20048;-58
2023/04/24 10:28:25;;;;;;;0.90;0.90;;;;;;;;;;4149973;28;20359;-58
2023/04/24 10:30:46;;;;;;;1.00;1.00;;;;;;;;;;4149255;28;20356;-58
2023/04/24 10:33:08;;;;;;;1.77;1.25;;;;;;;;;;4150601;28;20061;-59
2023/04/24 10:35:31;;;;;;;3.22;2.15;;;;;;;;;;4153382;28;20052;-58
2023/04/24 10:37:55;;;;;;;6.43;1.42;;;;;;;;;;4150022;28;20049;-59
2023/04/24 10:40:19;;;;;;;2.97;1.77;;;;;;;;;;4148897;28;20113;-58
2023/04/24 10:42:42;;;;;;;1.98;1.13;;;;;;;;;;4148256;28;20061;-58
2023/04/24 10:45:21;;;;;;;2.45;1.65;;;;;;;;;;4149842;28;20394;-58
2023/04/24 10:47:41;;;;;;;4.13;2.22;;;;;;;;;;4149575;28;20044;-58
2023/04/24 10:50:02;;;;;;;1.13;1.00;;;;;;;;;;4149469;28;20329;-59
2023/04/24 10:52:22;;;;;;;1.88;1.77;;;;;;;;;;4145732;28;20053;-58
2023/04/24 10:54:43;;;;;;;2.92;1.60;;;;;;;;;;4146144;28;20049;-58
2023/04/24 10:57:22;;;;;;;2.05;1.20;;;;;;;;;;4146909;28;20072;-58
2023/04/24 10:59:42;;;;;;;3.25;1.20;;;;;;;;;;4148619;28;20044;-59
2023/04/24 11:02:02;;;;;;;1.45;1.35;;;;;;;;;;4144341;28;20053;-58
2023/04/24 11:04:33;;;;;;;1.95;1.33;;;;;;;;;;4147636;28;20137;-58
2023/04/24 11:06:54;;;;;;;2.92;1.00;;;;;;;;;;4145615;28;20225;-58
2023/04/24 11:09:16;;;;;;;2.58;1.80;;;;;;;;;;4149877;28;20149;-59
2023/04/24 11:11:37;;;;;;;4.68;1.70;;;;;;;;;;4151448;28;20150;-59
2023/04/24 11:14:00;;;;;;;1.00;1.00;;;;;;;;;;4149536;28;20049;-58
2023/04/24 11:16:23;;;;;;;1.15;1.15;;;;;;;;;;4145774;28;20375;-58
2023/04/24 11:18:50;;;;;;;1.45;1.10;;;;;;;;;;4149498;28;20069;-59
2023/04/24 11:21:11;;;;;;;1.98;1.02;;;;;;;;;;4150822;28;20092;-58
2023/04/24 11:23:37;;;;;;;1.15;1.00;;;;;;;;;;4147861;28;20045;-58
2023/04/24 11:26:32;;;;;;;1.88;1.13;;;;;;;;;;4142195;28;20058;-58
2023/04/24 11:28:52;;;;;;;3.55;1.48;;;;;;;;;;4074253;29;20279;-59
2023/04/24 11:31:31;;;;;;;1.13;1.02;;;;;;;;;;4073994;29;20059;-59
2023/04/24 11:33:51;;;;;;;2.20;2.03;;;;;;;;;;4076146;29;20047;-58
2023/04/24 11:36:11;;;;;;;2.05;0.90;;;;;;;;;;4074039;29;20054;-58
2023/04/24 11:38:31;;;;;;;2.33;2.13;;;;;;;;;;4074792;29;20090;-58
2023/04/24 11:40:52;;;;;;;3.38;1.25;;;;;;;;;;4075444;29;20059;-58
2023/04/24 11:43:15;;;;;;;2.25;1.33;;;;;;;;;;4073104;29;20093;-58
2023/04/24 11:45:35;;;;;;;2.90;1.23;;;;;;;;;;4073918;29;20103;-59
2023/04/24 11:47:55;;;;;;;2.78;1.58;;;;;;;;;;4074331;29;20047;-58
2023/04/24 11:50:16;;;;;;;1.48;1.20;;;;;;;;;;4073175;29;20051;-59
2023/04/24 11:52:47;;;;;;;2.50;1.20;;;;;;;;;;4076967;29;20384;-58
2023/04/24 11:55:28;;;;;;;4.05;1.63;;;;;;;;;;4074204;29;20072;-58
2023/04/24 11:57:53;;;;;;;4.32;1.20;;;;;;;;;;4083123;29;20507;-58
2023/04/24 12:00:23;;;;;;;2.22;1.33;;;;;;;;;;4077852;29;20051;-59
2023/04/24 12:02:44;;;;;;;1.23;1.13;;;;;;;;;;4077035;29;20153;-58
2023/04/24 12:05:05;;;;;;;2.22;1.13;;;;;;;;;;4111144;28;20364;-58
2023/04/24 12:07:25;;;;;;;2.38;1.30;;;;;;;;;;4150606;28;20052;-59
2023/04/24 12:09:46;;;;;;;1.30;1.10;;;;;;;;;;4152363;28;20048;-58
2023/04/24 12:12:07;;;;;;;2.75;1.63;;;;;;;;;;4150771;28;20045;-58
2023/04/24 12:14:27;;;;;;;1.00;1.00;;;;;;;;;;4151969;28;20087;-58
2023/04/24 12:16:48;;;;;;;2.05;1.00;;;;;;;;;;4147636;28;20056;-58
2023/04/24 12:19:08;;;;;;;3.13;1.30;;;;;;;;;;4152587;28;20049;-58
2023/04/24 12:21:30;;;;;;;4.93;1.30;;;;;;;;;;4151535;28;20096;-57
2023/04/24 12:23:50;;;;;;;1.45;1.25;;;;;;;;;;4150273;28;20045;-57
2023/04/24 12:26:11;;;;;;;1.55;1.27;;;;;;;;;;4146768;28;20133;-61
2023/04/24 12:28:37;;;;;;;6.00;1.20;;;;;;;;;;4150675;28;20120;-61
2023/04/24 12:30:59;;;;;;;6.30;1.45;;;;;;;;;;4149332;28;20053;-61
2023/04/24 12:33:20;;;;;;;2.55;1.08;;;;;;;;;;4152144;28;20124;-62
2023/04/24 12:35:41;;;;;;;2.85;1.25;;;;;;;;;;4148507;28;20106;-61
2023/04/24 12:38:08;;;;;;;3.70;1.20;;;;;;;;;;4149748;28;20403;-61
2023/04/24 12:40:31;;;;;;;3.28;0.90;;;;;;;;;;4151472;28;20387;-61
2023/04/24 12:42:52;;;;;;;1.17;0.90;;;;;;;;;;4151958;28;20052;-61
2023/04/24 12:45:12;;;;;;;5.03;1.67;;;;;;;;;;4150299;28;20356;-62
2023/04/24 12:47:33;;;;;;;5.18;1.85;;;;;;;;;;4152689;28;20044;-62
2023/04/24 12:49:53;;;;;;;4.43;1.00;;;;;;;;;;4153211;28;20065;-62
2023/04/24 12:52:13;;;;;;;3.28;1.10;;;;;;;;;;4150908;28;20045;-62
2023/04/24 12:54:33;;;;;;;0.88;0.88;;;;;;;;;;4153669;28;20049;-62
2023/04/24 12:56:53;;;;;;;1.85;1.13;;;;;;;;;;4153291;28;20149;-61
2023/04/24 12:59:13;;;;;;;2.60;1.70;;;;;;;;;;4153803;28;20049;-61
2023/04/24 13:01:33;;;;;;;2.80;1.38;;;;;;;;;;4148143;28;20364;-61
2023/04/24 13:03:53;;;;;;;1.23;1.23;;;;;;;;;;4149612;28;20403;-61
2023/04/24 13:06:14;;;;;;;2.15;1.58;;;;;;;;;;4153572;28;20044;-60
2023/04/24 13:08:34;;;;;;;2.63;1.20;;;;;;;;;;4153773;28;20149;-61
2023/04/24 13:10:54;;;;;;;1.40;1.20;;;;;;;;;;4145669;28;20053;-61
2023/04/24 13:13:14;;;;;;;1.40;1.00;;;;;;;;;;4146259;28;20096;-61
2023/04/24 13:15:35;;;;;;;0.90;0.90;;;;;;;;;;4155443;28;20237;-61
2023/04/24 13:17:55;;;;;;;1.58;0.90;;;;;;;;;;4143688;28;20076;-61
2023/04/24 13:20:15;;;;;;;1.10;1.00;;;;;;;;;;4143711;28;20057;-61
2023/04/24 13:22:36;;;;;;;1.38;1.25;;;;;;;;;;4148620;28;20076;-61
2023/04/24 13:24:57;;;;;;;3.33;1.10;;;;;;;;;;4152838;28;20060;-61
2023/04/24 13:27:17;;;;;;;4.97;1.10;;;;;;;;;;4149055;28;20060;-61
2023/04/24 13:29:38;;;;;;;1.38;1.10;;;;;;;;;;4147010;28;20083;-61
2023/04/24 13:31:58;;;;;;;1.35;1.10;;;;;;;;;;4151544;28;20312;-61
2023/04/24 13:34:18;;;;;;;6.88;1.60;;;;;;;;;;4155613;28;20088;-61
2023/04/24 13:36:39;;;;;;;3.33;1.13;;;;;;;;;;4146946;28;20109;-61
2023/04/24 13:38:59;;;;;;;1.70;0.90;;;;;;;;;;4151059;28;20123;-61
2023/04/24 13:41:19;;;;;;;1.25;1.15;;;;;;;;;;4146396;28;20061;-61
2023/04/24 13:43:41;;;;;;;2.45;1.17;;;;;;;;;;4146761;28;20118;-61
2023/04/24 13:46:02;;;;;;;;;;;;;;;;;;4148454;28;20057;-61
2023/04/24 13:48:23;;;;;;;0.95;0.95;;;;;;;;;;4149334;28;20032;-61
2023/04/24 13:50:43;;;;;;;4.13;1.65;;;;;;;;;;4152612;28;20276;-61
2023/04/24 13:53:04;;;;;;;2.30;1.00;;;;;;;;;;4149406;28;20065;-61
2023/04/24 13:55:25;;;;;;;2.15;0.90;;;;;;;;;;4152187;28;20049;-61
2023/04/24 13:57:45;;;;;;;2.88;1.23;;;;;;;;;;4153700;28;20049;-60
2023/04/24 14:00:10;;;;;;;2.20;0.95;;;;;;;;;;4150270;28;20150;-61
2023/04/24 14:02:30;;;;;;;2.38;1.42;;;;;;;;;;4151772;28;20085;-61
2023/04/24 14:04:50;;;;;;;3.03;0.90;;;;;;;;;;4147968;28;20368;-61
2023/04/24 14:07:10;;;;;;;0.90;0.90;;;;;;;;;;4149895;28;20049;-61